CAGO2: Washita River At Carnegie, OK

Data processed at Thu May 23 2019 23:50


All information presented herein is the property of the government of the United States of America and may be revised or deleted at any time without prior notice.
Dissemination of this information without the expressed written consent of the Public Affairs Office, Tulsa District U.S. Army Corps of Engineers is strictly prohibited.
These data are gathered electronically and, as presented, have not undergone any form of quality control. These data are not guaranteed to be valid or correct.
Go to home page.
Go to station list.
Go to home page.

Upstream stations:

Downstream station:
Previous Day
Next Day
Current Day
    
SHEF ID:       CAGO2     Washita River at Carnegie, OK
STATION TYPE:  
Regulating: Stage =    23.00, Flow =     9915

               PRECIP     STAGE  RIV-FLOW  BAT-LOAD
                   in        ft       cfs      volt
              Ccp-Rev   Ccp-Rev   Ccp-Rev   Ccp-Rev
(US/Central)
05/23 00:00      0.00     19.03      6291     12.73
05/23 01:00      0.00     19.06      6316     12.73
05/23 02:00      0.00     19.15      6391     12.65
05/23 03:00      0.00     19.16      6400     12.65
05/23 04:00      0.00     19.18      6416     12.65
05/23 05:00      0.00     19.29      6510     12.65
05/23 06:00      0.00     19.30      6518     12.57
05/23 07:00      0.00     19.30      6518     12.65
05/23 08:00      0.00     19.44      6638     12.65
05/23 09:00      0.00     19.48      6672     13.13
05/23 10:00      0.00     19.54      6724     13.29
05/23 11:00      0.00     19.52      6706     13.37
05/23 12:00      0.00     19.60      6776     13.13
05/23 13:00      0.00     19.64      6810     12.97
05/23 14:00      0.00     19.68      6845     12.97
05/23 15:00      0.00     19.70      6862     12.97
05/23 16:00      0.00     19.77      6924     12.97
05/23 17:00      0.00     19.80      6950     12.97
05/23 18:00      0.00     19.84      6983     12.97
05/23 19:00      0.00     19.86      7000     12.89
05/23 20:00      0.00     19.89      7025     12.89
05/23 21:00      0.00     19.94      7066     12.81
05/23 22:00      0.00     19.92      7050     12.81
05/23 23:00      0.00     19.85      6991     12.81